Time;durP1;ratioP1;P1;durP2;ratioP2;P2;SDS_P1;SDS_P2;PMS_P1;PMS_P2;Temp;Humidity;BMP_temperature;BMP_pressure;BME280_temperature;BME280_humidity;BME280_pressure;Samples;Min_cycle;Max_cycle;Signal;HPM_P1;HPM_P2
2021/04/08 00:01:14;;;;;;;;;;;;;;;17.41;68.28;100845.22;5047327;28;1654;-43
2021/04/08 00:03:39;;;;;;;;;;;;;;;17.40;68.24;100856.03;5047088;28;2096;-44
2021/04/08 00:06:04;;;;;;;;;;;;;;;17.40;68.90;100862.22;5043325;28;1806;-44
2021/04/08 00:08:29;;;;;;;;;;;;;;;17.38;68.88;100848.13;5047497;28;1562;-43
2021/04/08 00:10:55;;;;;;;;;;;;;;;17.40;68.65;100858.69;5048136;28;1548;-44
2021/04/08 00:13:20;;;;;;;;;;;;;;;17.41;68.39;100861.25;5045673;28;1642;-44
2021/04/08 00:15:45;;;;;;;;;;;;;;;17.38;67.72;100869.50;5047283;28;1641;-44
2021/04/08 00:18:11;;;;;;;;;;;;;;;17.39;68.71;100876.56;5044063;28;1538;-43
2021/04/08 00:20:36;;;;;;;;;;;;;;;17.42;68.49;100887.00;5047820;28;1700;-44
2021/04/08 00:23:01;;;;;;;;;;;;;;;17.39;67.93;100881.91;5046151;28;1906;-44
2021/04/08 00:25:26;;;;;;;;;;;;;;;17.35;67.83;100888.47;5044590;28;1583;-44
2021/04/08 00:27:52;;;;;;;;;;;;;;;17.37;68.11;100883.00;5047143;28;1603;-44
2021/04/08 00:30:17;;;;;;;;;;;;;;;17.35;67.84;100901.84;5044203;28;1643;-44
2021/04/08 00:32:42;;;;;;;;;;;;;;;17.35;68.28;100903.66;5046433;28;1426;-44
2021/04/08 00:35:08;;;;;;;;;;;;;;;17.35;68.35;100912.53;5049118;28;1782;-44
2021/04/08 00:37:33;;;;;;;;;;;;;;;17.34;67.75;100904.63;5043920;28;1743;-43
2021/04/08 00:39:59;;;;;;;;;;;;;;;17.34;68.62;100905.47;5044080;28;1758;-44
2021/04/08 00:42:24;;;;;;;;;;;;;;;17.33;67.63;100909.13;5048697;28;1899;-44
2021/04/08 00:44:49;;;;;;;;;;;;;;;17.37;67.30;100926.63;5046388;28;1817;-44
2021/04/08 00:47:15;;;;;;;;;;;;;;;17.35;67.49;100917.88;5051689;28;1556;-43
2021/04/08 00:49:40;;;;;;;;;;;;;;;17.33;67.52;100913.59;5048757;28;1798;-44
2021/04/08 00:52:05;;;;;;;;;;;;;;;17.32;68.60;100930.63;5044082;28;1714;-44
2021/04/08 00:54:31;;;;;;;;;;;;;;;17.28;67.57;100922.00;5045469;28;1685;-44
2021/04/08 00:56:56;;;;;;;;;;;;;;;17.29;68.07;100926.38;5040830;28;1531;-44
2021/04/08 00:59:22;;;;;;;;;;;;;;;17.30;67.97;100933.41;5048366;28;1793;-44
2021/04/08 01:01:47;;;;;;;;;;;;;;;17.27;68.32;100931.00;5047112;28;1502;-44
2021/04/08 01:04:12;;;;;;;;;;;;;;;17.26;68.22;100927.44;5041664;28;1914;-44
2021/04/08 01:06:38;;;;;;;;;;;;;;;17.27;68.67;100921.16;5045614;28;1911;-45
2021/04/08 01:09:05;;;;;;;;;;;;;;;17.28;67.72;100943.38;5048238;28;2095;-44
2021/04/08 01:11:30;;;;;;;;;;;;;;;17.24;67.65;100934.75;5047568;28;1909;-43
2021/04/08 01:13:55;;;;;;;;;;;;;;;17.23;68.12;100937.53;5044132;28;1772;-44
2021/04/08 01:16:33;;;;;;;;;;;;;;;17.23;67.60;100942.88;5043860;28;1750;-44
2021/04/08 01:19:01;;;;;;;;;;;;;;;17.23;68.73;100948.22;5036502;28;1525;-44
2021/04/08 01:21:41;;;;;;;;;;;;;;;17.22;67.79;100942.03;5044995;28;1562;-44
2021/04/08 01:24:34;;;;;;;;;;;;;;;17.23;68.55;100940.19;5044763;28;1917;-44
2021/04/08 01:27:17;;;;;;;;;;;;;;;17.21;68.28;100950.16;5046837;28;1776;-44
2021/04/08 01:29:55;;;;;;;;;;;;;;;17.22;68.34;100954.56;5041619;28;1776;-44
2021/04/08 01:32:22;;;;;;;;;;;;;;;17.22;67.68;100962.56;5042758;28;1578;-44
2021/04/08 01:34:49;;;;;;;;;;;;;;;17.20;67.42;100954.66;5041347;28;1782;-44
2021/04/08 01:37:15;;;;;;;;;;;;;;;17.21;68.69;100961.72;5043912;28;1568;-44
2021/04/08 01:39:43;;;;;;;;;;;;;;;17.19;67.99;100955.66;5035159;28;1644;-44
2021/04/08 01:42:09;;;;;;;;;;;;;;;17.19;68.29;100958.31;5040382;28;1599;-44
2021/04/08 01:44:35;;;;;;;;;;;;;;;17.19;67.42;100960.13;5045176;28;1651;-44
2021/04/08 01:47:09;;;;;;;;;;;;;;;17.19;68.44;100970.81;5043289;28;1364;-44
2021/04/08 01:49:36;;;;;;;;;;;;;;;17.16;67.61;100968.38;5046683;28;1587;-43
2021/04/08 01:52:02;;;;;;;;;;;;;;;17.16;68.71;100955.03;5042930;28;1459;-43
2021/04/08 01:54:30;;;;;;;;;;;;;;;17.18;67.66;100964.63;5040539;28;1719;-44
2021/04/08 01:56:57;;;;;;;;;;;;;;;17.18;67.93;100958.44;5041753;28;885;-43
2021/04/08 01:59:23;;;;;;;;;;;;;;;17.18;67.88;100988.66;5044791;28;1709;-44
2021/04/08 02:01:49;;;;;;;;;;;;;;;17.18;68.48;100982.47;5041373;28;1599;-44
2021/04/08 02:04:15;;;;;;;;;;;;;;;17.19;67.62;100970.81;5052792;28;1917;-44
2021/04/08 02:06:42;;;;;;;;;;;;;;;17.18;67.40;100969.13;5046609;28;1851;-44
2021/04/08 02:09:07;;;;;;;;;;;;;;;17.16;68.12;100971.06;5035309;28;1535;-43
2021/04/08 02:11:34;;;;;;;;;;;;;;;16.84;67.34;100945.00;5053929;23;3514;-67
2021/04/08 02:14:00;;;;;;;;;;;;;;;17.13;67.50;100982.84;5023358;28;1437;-67
2021/04/08 02:16:26;;;;;;;;;;;;;;;17.12;68.24;100986.47;5029878;28;1468;-68
2021/04/08 02:18:53;;;;;;;;;;;;;;;17.12;68.60;100982.97;5024523;28;1465;-66
2021/04/08 02:21:19;;;;;;;;;;;;;;;17.08;67.37;100985.84;5024362;28;1551;-58
2021/04/08 02:23:46;;;;;;;;;;;;;;;17.08;67.28;100985.84;5023397;28;1979;-58
2021/04/08 02:26:14;;;;;;;;;;;;;;;17.10;67.49;100975.91;5025605;28;765;-58
2021/04/08 02:28:40;;;;;;;;;;;;;;;17.10;67.44;100983.06;5025866;28;1490;-67
2021/04/08 02:31:07;;;;;;;;;;;;;;;17.06;67.72;100989.63;5021918;28;1492;-66
2021/04/08 02:33:32;;;;;;;;;;;;;;;17.05;67.47;100978.09;5010721;28;1431;-66
2021/04/08 02:35:59;;;;;;;;;;;;;;;17.26;67.32;100967.53;5024371;28;1040;-67
2021/04/08 02:38:26;;;;;;;;;;;;;;;17.68;66.62;100966.97;5025660;28;1705;-67
2021/04/08 02:40:52;;;;;;;;;;;;;;;18.57;63.64;100973.16;5025730;28;1483;-58
2021/04/08 02:43:18;;;;;;;;;;;;;;;19.04;62.11;100970.19;5003131;28;1890;-67
2021/04/08 02:45:43;;;;;;;;;;;;;;;19.45;61.27;100977.31;5027187;28;1456;-67
2021/04/08 02:48:16;;;;;;;;;;;;;;;19.68;60.00;100978.00;5026289;28;1347;-58
2021/04/08 02:50:42;;;;;;;;;;;;;;;19.51;61.08;100980.44;5013278;28;1701;-58
2021/04/08 02:53:21;;;;;;;;;;;;;;;19.52;61.25;100987.50;5029869;28;1492;-58
2021/04/08 02:55:51;;;;;;;;;;;;;;;19.38;61.38;100957.38;5028703;28;1697;-58
2021/04/08 02:58:17;;;;;;;;;;;;;;;19.48;61.22;100986.94;5014541;28;1550;-58
2021/04/08 03:01:03;;;;;;;;;;;;;;;19.52;61.57;100980.31;5023520;28;1543;-68
2021/04/08 03:03:36;;;;;;;;;;;;;;;19.47;61.45;101001.31;5005383;28;1995;-58
2021/04/08 03:06:05;;;;;;;;;;;;;;;19.51;61.46;100999.22;5020427;28;1509;-68
2021/04/08 03:08:31;;;;;;;;;;;;;;;19.53;61.50;100986.53;5023161;28;1606;-67
2021/04/08 03:10:59;;;;;;;;;;;;;;;19.58;60.81;100993.19;5023038;28;1598;-58
2021/04/08 03:13:26;;;;;;;;;;;;;;;19.56;61.41;100983.59;5028573;28;1504;-58
2021/04/08 03:15:51;;;;;;;;;;;;;;;19.64;60.76;100991.81;5025311;28;1598;-58
2021/04/08 03:18:18;;;;;;;;;;;;;;;19.58;60.80;100989.69;5021595;28;1096;-58
2021/04/08 03:20:49;;;;;;;;;;;;;;;19.54;61.42;100991.78;5025288;28;1425;-57
2021/04/08 03:23:15;;;;;;;;;;;;;;;19.66;61.18;100992.53;5025425;28;1973;-68
2021/04/08 03:25:40;;;;;;;;;;;;;;;19.70;61.14;100985.06;5027390;28;1571;-58
2021/04/08 03:28:07;;;;;;;;;;;;;;;19.73;61.09;101012.50;5021216;28;1472;-68
2021/04/08 03:30:33;;;;;;;;;;;;;;;19.70;60.84;101018.13;5025375;28;1543;-68
2021/04/08 03:32:58;;;;;;;;;;;;;;;19.80;60.34;101031.59;5028334;28;761;-58
2021/04/08 03:35:24;;;;;;;;;;;;;;;19.80;60.70;101024.41;5027259;28;1694;-68
2021/04/08 03:37:50;;;;;;;;;;;;;;;19.67;60.93;101029.09;5027284;28;1386;-67
2021/04/08 03:40:16;;;;;;;;;;;;;;;19.80;60.64;101036.97;5022914;28;1444;-68
2021/04/08 03:42:42;;;;;;;;;;;;;;;19.76;60.38;101041.75;5023089;28;1961;-58
2021/04/08 03:45:09;;;;;;;;;;;;;;;19.89;59.98;101054.09;5022802;28;1668;-58
2021/04/08 03:47:35;;;;;;;;;;;;;;;19.86;60.18;101050.69;5020742;28;837;-68
2021/04/08 03:50:01;;;;;;;;;;;;;;;19.83;60.31;101034.84;5025169;28;1682;-58
2021/04/08 03:52:26;;;;;;;;;;;;;;;19.80;60.26;101035.13;5023912;28;1488;-58
2021/04/08 03:54:52;;;;;;;;;;;;;;;19.80;60.39;101051.22;5022850;28;1729;-59
2021/04/08 03:57:19;;;;;;;;;;;;;;;19.29;62.12;101054.72;5002830;28;797;-71
2021/04/08 03:59:45;;;;;;;;;;;;;;;18.94;62.91;101055.00;5021991;28;1559;-59
2021/04/08 04:02:12;;;;;;;;;;;;;;;18.71;63.45;101067.59;5020220;28;1565;-58
2021/04/08 04:04:38;;;;;;;;;;;;;;;18.54;63.94;101080.53;5031635;28;1898;-69
2021/04/08 04:07:03;;;;;;;;;;;;;;;18.38;64.08;101085.41;5026411;28;1013;-59
2021/04/08 04:09:29;;;;;;;;;;;;;;;18.27;64.63;101108.56;5027978;28;1726;-58
2021/04/08 04:11:55;;;;;;;;;;;;;;;18.16;64.77;101097.84;5027043;28;1482;-68
2021/04/08 04:14:22;;;;;;;;;;;;;;;18.07;65.28;101120.00;5025496;28;1472;-59
2021/04/08 04:16:48;;;;;;;;;;;;;;;18.00;65.39;101126.78;5025629;28;1527;-66
2021/04/08 04:19:14;;;;;;;;;;;;;;;17.98;65.29;101126.06;5012851;28;1532;-59
2021/04/08 04:21:39;;;;;;;;;;;;;;;17.99;65.75;101125.94;5024703;28;1484;-72
2021/04/08 04:24:05;;;;;;;;;;;;;;;17.98;64.82;101124.22;5030177;28;1910;-71
2021/04/08 04:26:31;;;;;;;;;;;;;;;17.95;65.35;101134.34;5025952;28;1421;-71
2021/04/08 04:28:56;;;;;;;;;;;;;;;17.91;64.95;101141.75;5017609;28;1136;-64
2021/04/08 04:31:21;;;;;;;;;;;;;;;18.00;64.92;101156.22;5029427;28;1580;-72
2021/04/08 04:33:48;;;;;;;;;;;;;;;17.91;65.29;101160.47;5032652;28;1519;-68
2021/04/08 04:36:13;;;;;;;;;;;;;;;17.91;65.41;101165.00;5030265;28;1500;-69
2021/04/08 04:38:39;;;;;;;;;;;;;;;17.89;64.82;101168.63;5046943;28;1119;-58
2021/04/08 04:41:04;;;;;;;;;;;;;;;17.93;64.85;101163.06;5032916;28;1464;-64
2021/04/08 04:43:30;;;;;;;;;;;;;;;18.01;65.03;101165.97;5030601;28;1878;-64
2021/04/08 04:45:56;;;;;;;;;;;;;;;17.97;65.06;101157.34;5027361;28;1566;-57
2021/04/08 04:48:21;;;;;;;;;;;;;;;17.99;64.62;101147.38;5016526;28;1539;-64
2021/04/08 04:50:47;;;;;;;;;;;;;;;18.08;64.03;101167.19;5030280;28;1471;-64
2021/04/08 04:53:12;;;;;;;;;;;;;;;18.13;64.30;101162.34;5028875;28;1589;-56
2021/04/08 04:55:37;;;;;;;;;;;;;;;18.13;64.10;101165.00;5033071;28;1582;-58
2021/04/08 04:58:03;;;;;;;;;;;;;;;18.16;64.00;101177.31;5031757;28;1433;-67
2021/04/08 05:00:28;;;;;;;;;;;;;;;18.25;63.68;101166.72;5013128;28;1517;-59
2021/04/08 05:02:53;;;;;;;;;;;;;;;18.34;64.05;101177.69;5029627;28;1898;-70
2021/04/08 05:05:19;;;;;;;;;;;;;;;18.47;63.72;101163.19;5031509;28;1472;-65
2021/04/08 05:07:44;;;;;;;;;;;;;;;18.51;63.46;101174.53;5030056;28;1428;-57
2021/04/08 05:10:11;;;;;;;;;;;;;;;18.56;63.20;101172.34;5028260;28;1488;-65
2021/04/08 05:12:36;;;;;;;;;;;;;;;18.66;63.74;101189.38;5030562;28;1464;-60
2021/04/08 05:15:02;;;;;;;;;;;;;;;18.67;63.67;101200.94;5027320;28;1214;-69
2021/04/08 05:17:28;;;;;;;;;;;;;;;18.74;62.59;101222.72;5027746;28;1714;-59
2021/04/08 05:19:54;;;;;;;;;;;;;;;18.74;63.28;101210.19;5008305;28;1539;-61
2021/04/08 05:22:19;;;;;;;;;;;;;;;18.78;63.18;101226.84;5025485;28;1977;-63
2021/04/08 05:24:44;;;;;;;;;;;;;;;18.74;63.95;101230.75;5027256;28;1569;-61
2021/04/08 05:27:10;;;;;;;;;;;;;;;18.56;64.05;101236.63;5006833;28;1348;-72
2021/04/08 05:29:35;;;;;;;;;;;;;;;18.65;63.37;101251.09;5021703;28;1444;-57
2021/04/08 05:32:01;;;;;;;;;;;;;;;18.65;62.68;101256.47;5021011;28;1012;-59
2021/04/08 05:34:27;;;;;;;;;;;;;;;18.73;62.79;101242.47;5026502;28;1476;-60
2021/04/08 05:36:52;;;;;;;;;;;;;;;18.72;63.02;101260.38;5021757;28;1441;-59
2021/04/08 05:39:18;;;;;;;;;;;;;;;18.69;63.16;101269.47;5026743;28;1472;-58
2021/04/08 05:41:44;;;;;;;;;;;;;;;18.66;63.62;101264.38;5024786;28;1449;-58
2021/04/08 05:44:10;;;;;;;;;;;;;;;18.66;63.95;101263.50;5020114;28;1898;-59
2021/04/08 05:46:35;;;;;;;;;;;;;;;18.58;64.38;101265.94;5015497;28;1286;-59
2021/04/08 05:49:01;;;;;;;;;;;;;;;18.60;64.39;101264.00;5012331;28;1500;-58
2021/04/08 05:51:26;;;;;;;;;;;;;;;18.57;64.65;101256.22;5022052;28;1463;-59
2021/04/08 05:53:51;;;;;;;;;;;;;;;18.58;64.83;101272.16;5023373;28;1531;-65
2021/04/08 05:56:17;;;;;;;;;;;;;;;18.53;64.63;101273.50;5021381;28;1073;-58
2021/04/08 05:58:42;;;;;;;;;;;;;;;18.54;64.85;101273.34;5028769;28;1527;-59
2021/04/08 06:01:07;;;;;;;;;;;;;;;18.63;64.79;101275.31;5005212;28;1554;-70
2021/04/08 06:03:33;;;;;;;;;;;;;;;18.60;64.76;101269.34;5027466;28;1886;-59
2021/04/08 06:05:58;;;;;;;;;;;;;;;18.63;64.12;101267.28;5027092;28;1697;-67
2021/04/08 06:08:23;;;;;;;;;;;;;;;18.58;64.59;101277.53;5020790;28;1448;-59
2021/04/08 06:10:49;;;;;;;;;;;;;;;18.50;64.67;101277.25;5027865;28;1421;-59
2021/04/08 06:13:15;;;;;;;;;;;;;;;18.51;65.67;101281.66;5028768;28;1487;-68
2021/04/08 06:15:41;;;;;;;;;;;;;;;18.58;64.26;101290.03;5022762;28;1480;-68
2021/04/08 06:18:06;;;;;;;;;;;;;;;18.60;64.33;101283.63;5028909;28;1307;-65
2021/04/08 06:20:31;;;;;;;;;;;;;;;18.58;64.61;101288.25;5026001;28;1480;-68
2021/04/08 06:22:57;;;;;;;;;;;;;;;18.55;64.65;101298.34;5029116;28;2029;-60
2021/04/08 06:25:23;;;;;;;;;;;;;;;18.55;64.52;101287.63;5004894;28;1594;-59
2021/04/08 06:27:49;;;;;;;;;;;;;;;18.55;65.13;101291.16;5020148;28;1261;-58
2021/04/08 06:30:14;;;;;;;;;;;;;;;18.55;64.65;101288.47;5024005;28;1472;-58
2021/04/08 06:32:40;;;;;;;;;;;;;;;18.58;64.74;101288.25;5018375;28;1610;-58
2021/04/08 06:35:06;;;;;;;;;;;;;;;18.77;63.86;101292.16;5024200;28;1417;-58
2021/04/08 06:37:31;;;;;;;;;;;;;;;18.87;63.92;101293.16;5024453;28;1593;-60
2021/04/08 06:39:57;;;;;;;;;;;;;;;18.91;63.61;101302.66;5018066;28;10859;-58
2021/04/08 06:42:23;;;;;;;;;;;;;;;18.94;64.22;101302.41;5027128;28;1906;-68
2021/04/08 06:44:52;;;;;;;;;;;;;;;18.92;63.80;101304.38;5020771;28;1441;-58
2021/04/08 06:47:29;;;;;;;;;;;;;;;18.88;63.86;101300.22;5020749;28;1537;-58
2021/04/08 06:49:58;;;;;;;;;;;;;;;18.87;64.26;101311.91;5019377;28;1350;-57
2021/04/08 06:52:23;;;;;;;;;;;;;;;18.86;65.07;101312.88;5000633;28;1437;-67
2021/04/08 06:54:49;;;;;;;;;;;;;;;18.83;64.53;101313.97;5011834;28;1429;-58
2021/04/08 06:57:18;;;;;;;;;;;;;;;18.86;64.65;101310.19;5021292;28;1143;-61
2021/04/08 06:59:45;;;;;;;;;;;;;;;18.69;64.45;101308.81;5025052;28;1432;-67
2021/04/08 07:02:13;;;;;;;;;;;;;;;18.53;64.43;101313.69;5023213;28;1600;-67
2021/04/08 07:04:38;;;;;;;;;;;;;;;18.75;63.86;101321.72;5018247;28;1922;-58
2021/04/08 07:07:03;;;;;;;;;;;;;;;18.61;64.15;101330.00;5014052;28;1448;-58
2021/04/08 07:09:29;;;;;;;;;;;;;;;18.62;63.44;101316.50;5019602;28;1445;-68
2021/04/08 07:11:54;;;;;;;;;;;;;;;18.73;63.30;101312.13;5015418;28;1508;-58
2021/04/08 07:14:20;;;;;;;;;;;;;;;18.79;63.01;101312.50;5021035;28;1377;-61
2021/04/08 07:16:45;;;;;;;;;;;;;;;18.89;63.20;101320.69;5022379;28;1210;-61
2021/04/08 07:19:11;;;;;;;;;;;;;;;18.89;63.21;101339.44;5024488;28;1380;-57
2021/04/08 07:21:37;;;;;;;;;;;;;;;18.91;63.17;101321.41;5016949;28;1493;-56
2021/04/08 07:24:15;;;;;;;;;;;;;;;18.90;63.18;101325.06;5019680;28;1965;-55
2021/04/08 07:26:57;;;;;;;;;;;;;;;18.89;63.14;101334.06;5018930;28;1441;-56
2021/04/08 07:29:23;;;;;;;;;;;;;;;18.89;63.33;101336.75;5017240;28;1512;-63
2021/04/08 07:31:48;;;;;;;;;;;;;;;18.86;63.41;101335.19;5007142;28;1449;-58
2021/04/08 07:34:31;;;;;;;;;;;;;;;18.90;63.55;101343.84;5003297;28;1485;-55
2021/04/08 07:36:56;;;;;;;;;;;;;;;18.88;63.41;101351.16;5020190;28;1249;-56
2021/04/08 07:39:22;;;;;;;;;;;;;;;18.89;63.32;101352.84;5016951;28;1376;-61
2021/04/08 07:42:01;;;;;;;;;;;;;;;18.90;63.29;101357.25;5018740;28;1436;-57
2021/04/08 07:44:27;;;;;;;;;;;;;;;18.97;63.28;101347.72;5018693;28;1910;-58
2021/04/08 07:46:53;;;;;;;;;;;;;;;19.00;63.38;101355.53;5022618;28;1237;-57
2021/04/08 07:49:25;;;;;;;;;;;;;;;18.98;63.23;101376.25;5022922;28;1496;-61
2021/04/08 07:51:50;;;;;;;;;;;;;;;18.95;63.43;101370.25;5023662;28;1492;-59
2021/04/08 07:54:17;;;;;;;;;;;;;;;18.90;63.54;101362.59;5015601;28;1409;-60
2021/04/08 07:56:43;;;;;;;;;;;;;;;18.86;63.73;101361.97;5021863;28;1425;-57
2021/04/08 07:59:34;;;;;;;;;;;;;;;18.89;63.78;101376.94;5023673;28;1504;-60
2021/04/08 08:02:01;;;;;;;;;;;;;;;18.82;63.76;101370.34;5024313;28;1535;-58
2021/04/08 08:04:27;;;;;;;;;;;;;;;18.77;63.99;101383.25;5014051;28;2001;-64
2021/04/08 08:06:53;;;;;;;;;;;;;;;18.73;63.97;101373.72;5012842;28;1627;-60
2021/04/08 08:09:20;;;;;;;;;;;;;;;18.75;64.05;101366.44;5021904;28;1678;-62
2021/04/08 08:11:45;;;;;;;;;;;;;;;18.73;63.59;101376.41;5013475;28;1468;-74
2021/04/08 08:14:11;;;;;;;;;;;;;;;18.65;63.23;101379.69;5017332;28;1428;-67
2021/04/08 08:16:37;;;;;;;;;;;;;;;18.62;63.06;101380.78;5017481;28;1440;-59
2021/04/08 08:19:02;;;;;;;;;;;;;;;18.59;62.84;101381.00;5015594;28;1504;-63
2021/04/08 08:21:38;;;;;;;;;;;;;;;18.60;62.36;101377.38;5013523;28;1436;-61
2021/04/08 08:24:07;;;;;;;;;;;;;;;18.64;62.69;101370.81;5016570;28;1914;-63
2021/04/08 08:26:34;;;;;;;;;;;;;;;18.61;62.88;101376.38;5020220;28;1357;-59
2021/04/08 08:29:13;;;;;;;;;;;;;;;18.60;62.84;101380.06;5025008;28;1428;-63
2021/04/08 08:31:55;;;;;;;;;;;;;;;18.58;62.16;101370.41;5016051;28;1436;-59
2021/04/08 08:34:22;;;;;;;;;;;;;;;18.60;62.08;101380.06;5034381;28;1519;-59
2021/04/08 08:36:49;;;;;;;;;;;;;;;18.34;62.25;101338.31;4998771;28;1543;-59
2021/04/08 08:39:15;;;;;;;;;;;;;;;18.66;62.07;101384.94;5020667;28;1598;-63
2021/04/08 08:41:41;;;;;;;;;;;;;;;18.72;62.13;101385.41;5021437;28;1578;-64
2021/04/08 08:44:08;;;;;;;;;;;;;;;18.77;62.09;101393.97;5024025;28;1922;-63
2021/04/08 08:46:37;;;;;;;;;;;;;;;18.80;61.97;101394.63;5029879;28;1198;-63
2021/04/08 08:49:03;;;;;;;;;;;;;;;18.82;62.25;101389.13;5024620;28;1457;-63
2021/04/08 08:51:28;;;;;;;;;;;;;;;18.81;62.03;101390.94;5019818;28;1489;-59
2021/04/08 08:53:55;;;;;;;;;;;;;;;18.80;62.15;101399.09;5022691;28;1473;-62
2021/04/08 08:56:24;;;;;;;;;;;;;;;18.79;61.89;101408.09;5020074;28;813;-59
2021/04/08 08:58:51;;;;;;;;;;;;;;;18.81;62.39;101411.53;5026498;28;1571;-59
2021/04/08 09:01:17;;;;;;;;;;;;;;;18.89;62.16;101409.13;5025995;28;1428;-62
2021/04/08 09:03:43;;;;;;;;;;;;;;;18.91;62.21;101398.28;5027098;28;1898;-65
2021/04/08 09:06:09;;;;;;;;;;;;;;;18.97;62.12;101406.69;5032414;28;1456;-64
2021/04/08 09:08:36;;;;;;;;;;;;;;;19.04;61.83;101410.59;5039227;28;1519;-60
2021/04/08 09:11:02;;;;;;;;;;;;;;;19.01;62.11;101410.84;5027692;28;1469;-64
2021/04/08 09:13:27;;;;;;;;;;;;;;;19.14;61.95;101418.78;5020425;28;1531;-59
2021/04/08 09:15:53;;;;;;;;;;;;;;;19.24;61.64;101424.28;5023686;28;1421;-68
2021/04/08 09:18:21;;;;;;;;;;;;;;;19.35;61.41;101420.72;5022772;28;1421;-60
2021/04/08 09:20:46;;;;;;;;;;;;;;;19.30;62.08;101430.97;5019941;28;840;-62
2021/04/08 09:23:13;;;;;;;;;;;;;;;19.23;62.04;101433.28;5018935;28;2318;-58
2021/04/08 09:25:40;;;;;;;;;;;;;;;19.21;61.99;101436.06;5020081;28;1480;-62
2021/04/08 09:28:10;;;;;;;;;;;;;;;19.19;62.19;101427.28;5023522;28;1649;-63
2021/04/08 09:30:42;;;;;;;;;;;;;;;19.23;62.24;101427.91;5026467;28;1527;-59
2021/04/08 09:33:08;;;;;;;;;;;;;;;19.23;62.49;101436.81;5015291;28;808;-60
2021/04/08 09:35:33;;;;;;;;;;;;;;;19.13;62.52;101430.47;5023263;28;1499;-62
2021/04/08 09:38:02;;;;;;;;;;;;;;;19.03;62.54;101411.56;5027432;28;1595;-58
2021/04/08 09:40:33;;;;;;;;;;;;;;;19.02;62.69;101415.22;5024070;28;1456;-64
2021/04/08 09:43:19;;;;;;;;;;;;;;;19.05;62.37;101414.97;5024540;28;1902;-65
2021/04/08 09:45:50;;;;;;;;;;;;;;;19.08;62.48;101398.66;5025398;28;1614;-59
2021/04/08 09:48:16;;;;;;;;;;;;;;;19.10;62.35;101417.31;5009292;28;1306;-59
2021/04/08 09:50:45;;;;;;;;;;;;;;;19.02;62.28;101412.56;5008382;28;11775;-60
2021/04/08 09:53:10;;;;;;;;;;;;;;;18.98;62.45;101396.81;5025355;28;1633;-59
2021/04/08 09:55:36;;;;;;;;;;;;;;;18.17;54.99;101403.88;5026877;28;1523;-59
2021/04/08 09:58:03;;;;;;;;;;;;;;;18.41;62.76;101407.38;5029452;28;1449;-59
2021/04/08 10:00:29;;;;;;;;;;;;;;;18.67;61.81;101399.16;5025857;28;1176;-59
2021/04/08 10:02:58;;;;;;;;;;;;;;;18.78;61.19;101403.69;5024111;28;1971;-59
2021/04/08 10:05:28;;;;;;;;;;;;;;;18.83;60.88;101409.59;5029176;28;1476;-59
2021/04/08 10:07:55;;;;;;;;;;;;;;;18.87;60.92;101400.34;5018336;28;1479;-59
2021/04/08 10:10:35;;;;;;;;;;;;;;;18.87;61.63;101408.38;5018350;28;1623;-63
2021/04/08 10:13:01;;;;;;;;;;;;;;;18.86;61.33;101420.06;5024844;28;1622;-59
2021/04/08 10:15:33;;;;;;;;;;;;;;;18.86;61.60;101403.97;5029453;28;1449;-59
2021/04/08 10:18:00;;;;;;;;;;;;;;;18.86;60.17;101409.34;5034136;28;1494;-63
2021/04/08 10:20:35;;;;;;;;;;;;;;;18.89;60.53;101419.84;5017692;28;1840;-59
2021/04/08 10:23:00;;;;;;;;;;;;;;;18.90;59.90;101394.75;5013755;28;1975;-59
2021/04/08 10:25:26;;;;;;;;;;;;;;;18.91;60.43;101406.31;5031983;28;1484;-59
2021/04/08 10:27:55;;;;;;;;;;;;;;;18.91;60.49;101404.50;5018352;28;2091;-59
2021/04/08 10:30:20;;;;;;;;;;;;;;;18.92;60.61;101421.41;5022872;28;1495;-59
2021/04/08 10:32:46;;;;;;;;;;;;;;;18.95;60.49;101413.16;5020637;28;1484;-63
2021/04/08 10:35:19;;;;;;;;;;;;;;;18.95;60.56;101418.50;5025713;28;1491;-59
2021/04/08 10:37:44;;;;;;;;;;;;;;;18.95;60.70;101413.16;5025063;28;1516;-59
2021/04/08 10:40:09;;;;;;;;;;;;;;;19.03;60.98;101424.97;5026350;28;1607;-59
2021/04/08 10:42:35;;;;;;;;;;;;;;;18.84;61.33;101419.31;5021541;28;1920;-63
2021/04/08 10:45:06;;;;;;;;;;;;;;;18.88;61.17;101418.16;5026082;28;1480;-64
2021/04/08 10:47:33;;;;;;;;;;;;;;;18.80;58.96;101415.16;5026054;28;1395;-64
2021/04/08 10:50:00;;;;;;;;;;;;;;;18.78;60.16;101417.97;5024775;28;1650;-59
2021/04/08 10:52:30;;;;;;;;;;;;;;;18.71;60.05;101419.38;5027730;28;1496;-65
2021/04/08 10:54:56;;;;;;;;;;;;;;;18.47;57.39;101416.75;5019991;28;1433;-65
2021/04/08 10:57:22;;;;;;;;;;;;;;;17.72;59.94;101414.28;5027644;28;835;-60
2021/04/08 10:59:49;;;;;;;;;;;;;;;18.24;59.33;101410.44;5021010;28;1433;-59
2021/04/08 11:02:17;;;;;;;;;;;;;;;18.37;58.75;101410.41;5021393;28;1590;-60
2021/04/08 11:04:42;;;;;;;;;;;;;;;18.31;57.99;101400.16;5025073;28;1906;-69
2021/04/08 11:07:07;;;;;;;;;;;;;;;18.20;57.96;101407.13;5017739;28;797;-60
2021/04/08 11:09:33;;;;;;;;;;;;;;;18.29;57.70;101409.13;5029141;28;1511;-68
2021/04/08 11:12:13;;;;;;;;;;;;;;;18.36;58.54;101396.13;5016786;28;1739;-59
2021/04/08 11:14:43;;;;;;;;;;;;;;;18.44;57.61;101398.22;5019053;28;1655;-59
2021/04/08 11:17:09;;;;;;;;;;;;;;;18.32;57.36;101391.13;5020596;28;1610;-63
2021/04/08 11:19:36;;;;;;;;;;;;;;;18.46;57.84;101381.09;5027773;28;1532;-63
2021/04/08 11:22:01;;;;;;;;;;;;;;;18.50;56.09;101392.41;5026085;28;1444;-59
2021/04/08 11:24:27;;;;;;;;;;;;;;;18.55;55.99;101382.22;5030855;28;1910;-67
2021/04/08 11:26:53;;;;;;;;;;;;;;;18.57;56.88;101366.03;5028746;28;1538;-60
2021/04/08 11:29:27;;;;;;;;;;;;;;;18.74;57.03;101395.06;5035822;28;1397;-63
2021/04/08 11:31:59;;;;;;;;;;;;;;;18.79;57.32;101387.53;5025320;28;889;-59
2021/04/08 11:34:24;;;;;;;;;;;;;;;18.79;56.65;101392.00;5041638;28;1197;-59
2021/04/08 11:36:53;;;;;;;;;;;;;;;18.81;57.26;101384.75;5024515;28;1599;-57
2021/04/08 11:39:19;;;;;;;;;;;;;;;18.77;57.50;101376.06;5022824;28;1574;-58
2021/04/08 11:41:44;;;;;;;;;;;;;;;18.82;57.57;101370.34;5024642;28;1414;-60
2021/04/08 11:44:11;;;;;;;;;;;;;;;18.86;57.79;101385.22;5039615;28;1889;-68
2021/04/08 11:46:36;;;;;;;;;;;;;;;18.90;58.17;101367.97;5023435;28;950;-61
2021/04/08 11:49:13;;;;;;;;;;;;;;;18.88;58.53;101367.22;5046073;28;1696;-61
2021/04/08 11:51:38;;;;;;;;;;;;;;;18.94;58.70;101371.22;5025341;28;1456;-69
2021/04/08 11:54:11;;;;;;;;;;;;;;;18.94;59.06;101373.91;5023845;28;1578;-56
2021/04/08 11:56:37;;;;;;;;;;;;;;;18.99;59.20;101369.03;5024348;28;1128;-63
2021/04/08 11:59:15;;;;;;;;;;;;;;;18.95;59.25;101365.75;5034627;28;1474;-57
2021/04/08 12:01:41;;;;;;;;;;;;;;;18.97;59.31;101347.72;5023350;28;1448;-69
2021/04/08 12:04:15;;;;;;;;;;;;;;;19.01;59.70;101354.53;5025238;28;1918;-55
2021/04/08 12:06:41;;;;;;;;;;;;;;;19.00;59.47;101352.84;5021216;28;1547;-65
2021/04/08 12:09:07;;;;;;;;;;;;;;;19.01;59.75;101362.59;5019560;28;1477;-56
2021/04/08 12:11:52;;;;;;;;;;;;;;;19.00;59.87;101351.97;5024958;28;1468;-57
2021/04/08 12:14:18;;;;;;;;;;;;;;;18.97;59.93;101341.50;5019975;28;1483;-56
2021/04/08 12:16:43;;;;;;;;;;;;;;;18.98;59.84;101349.44;5023803;28;1424;-65
2021/04/08 12:19:20;;;;;;;;;;;;;;;18.98;59.92;101351.25;5027290;28;1433;-64
2021/04/08 12:21:56;;;;;;;;;;;;;;;19.01;60.28;101342.97;5032799;28;1436;-56
2021/04/08 12:24:22;;;;;;;;;;;;;;;18.96;60.29;101348.72;5022752;28;2328;-56
2021/04/08 12:26:47;;;;;;;;;;;;;;;18.93;60.19;101359.66;5026232;28;1488;-64
2021/04/08 12:29:12;;;;;;;;;;;;;;;18.87;60.97;101366.34;5032736;28;1516;-62
2021/04/08 12:31:38;;;;;;;;;;;;;;;18.90;61.31;101354.56;5028217;28;1064;-56
2021/04/08 12:34:04;;;;;;;;;;;;;;;18.92;61.29;101349.94;5018717;28;1429;-64
2021/04/08 12:36:30;;;;;;;;;;;;;;;18.93;60.79;101346.25;5028322;28;1382;-64
2021/04/08 12:38:56;;;;;;;;;;;;;;;18.98;60.95;101346.75;5031222;28;1456;-56
2021/04/08 12:41:21;;;;;;;;;;;;;;;19.02;61.00;101353.59;5027983;28;1500;-56
2021/04/08 12:43:47;;;;;;;;;;;;;;;18.98;61.16;101348.56;5031034;28;1902;-65
2021/04/08 12:46:12;;;;;;;;;;;;;;;19.00;61.58;101347.50;5021548;28;1515;-56
2021/04/08 12:48:38;;;;;;;;;;;;;;;19.00;61.21;101347.50;5031845;28;1492;-64